Latest Weather Observations for Lombadina

IDW60801

Issued at 10:53 pm WST Saturday 23 January 2021 (issued every 10 minutes, with the page automatically refreshed every 10 minutes)

About weather observations | Map of weather stations | Latest weather observations for WA | Other Formats
Station Details ID: 503016 Name: LOMBADINA AIRSTRIP Lat: -16.52 Lon: 122.92 Height: 42.0 m
Data from the previous 72 hours. | See also: Recent months for locations in Western Australia
Date/Time
WST
Temp
°C
App
Temp
°C
Dew
Point
°C
Rel
Hum
%
Delta-T
°C
Wind Press
QNH
hPa
Press
MSL
hPa
Rain since
9am
mm
Dir  Spd
km/h
Gust
km/h
Spd
kts
Gust
kts
23/10:30pm 28.6 33.6 26.0 86 1.8 WNW 11 17 6 9 1006.9 1006.5 13.8
23/10:00pm 28.8 32.8 25.6 83 2.3 WNW 15 24 8 13 1007.1 1006.7 13.8
23/09:30pm 28.7 33.3 25.9 85 2.0 WNW 13 20 7 11 1007.2 1006.8 13.8
23/09:00pm 28.8 32.5 25.2 81 2.5 WNW 15 24 8 13 1006.9 1006.5 13.8
23/08:30pm 28.8 33.0 25.4 82 2.4 WNW 13 24 7 13 1006.4 1006.0 13.8
23/08:00pm 28.6 34.3 26.4 88 1.6 W 9 19 5 10 1006.0 1005.6 13.8
23/07:30pm 28.5 34.0 26.1 87 1.7 W 9 17 5 9 1005.5 1005.1 13.8
23/07:00pm 28.6 33.7 26.2 87 1.7 W 11 20 6 11 1005.4 1005.0 13.8
23/06:30pm 28.7 33.4 26.1 86 1.8 WNW 13 20 7 11 1005.1 1004.7 13.8
23/06:00pm 28.8 33.4 26.0 85 2.0 WNW 13 20 7 11 1004.8 1004.5 13.8
23/05:30pm 28.9 33.8 26.9 89 1.4 WNW 15 22 8 12 1004.4 1004.1 13.8
23/05:00pm 28.8 32.9 26.4 87 1.7 WNW 17 30 9 16 1004.5 1004.2 13.8
23/04:30pm 28.8 32.8 26.2 86 1.9 WNW 17 33 9 18 1004.3 1004.0 13.8
23/04:00pm 29.0 33.4 26.8 88 1.6 WNW 17 28 9 15 1003.9 1003.6 13.8
23/03:30pm 28.4 31.8 26.2 88 1.6 WNW 20 32 11 17 1004.4 1004.1 13.8
23/03:00pm 28.0 32.6 25.4 86 1.8 W 11 24 6 13 1004.3 1004.0 13.8
23/02:30pm 27.0 30.7 25.2 90 1.3 WNW 15 22 8 12 1004.6 1004.3 13.8
23/02:00pm 25.8 31.1 25.8 100 0.0 W 9 20 5 11 1004.3 1004.0 13.8
23/01:56pm 25.3 30.8 25.3 100 0.0 WSW 6 13 3 7 1004.6 1004.3 13.8
23/01:46pm 24.4 29.2 24.4 100 0.0 SW 7 19 4 10 1004.9 1004.6 13.6
23/01:30pm 24.5 26.5 24.5 100 0.0 WSW 22 39 12 21 1005.6 1005.2 7.6
23/01:25pm 24.9 26.8 24.4 97 0.3 WSW 22 37 12 20 1005.3 1004.9 2.0
23/01:23pm 25.0 27.0 24.0 94 0.7 WSW 20 35 11 19 1004.9 1004.6 1.6
23/01:13pm 29.5 33.9 27.3 88 1.6 NW 19 33 10 18 1004.5 1004.2 0.6
23/01:00pm 28.5 32.1 26.5 89 1.4 NW 20 32 11 17 1004.6 1004.3 0.2
23/12:30pm 31.5 34.5 26.7 75 3.5 NW 24 37 13 20 1004.6 1004.3 0.0
23/12:00pm 31.5 35.5 27.0 77 3.3 NW 20 32 11 17 1004.8 1004.5 0.0
23/11:30am 31.5 35.6 26.3 74 3.7 WNW 17 30 9 16 1005.4 1005.0 0.0
23/11:00am 31.0 33.9 26.0 74 3.6 WNW 22 33 12 18 1005.6 1005.2 0.0
23/10:30am 30.6 33.5 25.9 76 3.3 WNW 22 32 12 17 1005.7 1005.3 0.0
23/10:00am 30.7 33.4 25.1 72 4.0 WNW 20 30 11 16 1005.7 1005.3 0.0
23/09:30am 30.1 33.0 25.4 76 3.3 WNW 20 32 11 17 1006.1 1005.7 0.0
23/09:00am 30.3 33.4 25.4 75 3.5 WNW 19 26 10 14 1006.2 1005.8 8.4
23/08:30am 30.4 33.5 24.8 72 3.9 WNW 17 28 9 15 1006.3 1005.9 8.4
23/08:00am 30.2 33.8 24.4 71 4.1 W 13 22 7 12 1006.2 1005.8 8.4
23/07:30am 29.6 32.6 24.0 72 3.9 WNW 15 22 8 12 1005.9 1005.5 8.4
23/07:00am 29.2 33.4 24.7 77 3.2 WNW 11 19 6 10 1005.3 1004.9 8.4
23/06:30am 28.7 32.9 24.7 79 2.8 W 11 24 6 13 1004.8 1004.5 8.4
23/06:00am 28.3 32.4 24.5 80 2.7 W 11 20 6 11 1004.4 1004.1 8.4
23/05:30am 28.2 32.1 24.2 79 2.8 W 11 19 6 10 1003.9 1003.6 8.4
23/05:00am 28.2 31.4 24.4 80 2.6 W 15 24 8 13 1003.6 1003.3 8.4
23/04:30am 28.1 32.0 24.9 83 2.2 W 13 24 7 13 1003.1 1002.8 8.4
23/04:00am 27.9 30.9 24.7 83 2.2 WNW 17 33 9 18 1002.8 1002.5 8.4
23/03:30am 27.8 31.7 25.4 87 1.7 W 15 28 8 15 1002.6 1002.3 8.4
23/03:00am 27.7 31.1 25.3 87 1.7 WNW 17 28 9 15 1002.5 1002.2 8.4
23/02:30am 26.8 28.9 24.1 85 1.9 WNW 20 37 11 20 1002.8 1002.5 8.4
23/02:00am 26.1 28.8 24.7 92 1.0 W 19 43 10 23 1002.9 1002.6 8.4
23/01:33am 26.7 30.0 25.1 91 1.1 WNW 17 26 9 14 1003.1 1002.8 8.4
23/01:30am 26.7 29.6 25.1 91 1.1 WNW 19 35 10 19 1003.1 1002.8 8.4
23/01:14am 25.9 29.5 25.6 98 0.2 WNW 17 26 9 14 1003.6 1003.3 7.4
23/01:00am 27.1 30.1 25.5 91 1.1 WNW 20 32 11 17 1003.5 1003.2 4.4
23/12:30am 28.0 30.7 25.0 84 2.1 WNW 20 32 11 17 1003.6 1003.3 4.4
23/12:00am 28.4 30.9 26.0 87 1.7 NW 24 35 13 19 1003.8 1003.5 4.0
 
Date/Time
WST
Temp
°C
App
Temp
°C
Dew
Point
°C
Rel
Hum
%
Delta-T
°C
Wind Press
QNH
hPa
Press
MSL
hPa
Rain since
9am
mm
Dir  Spd
km/h
Gust
km/h
Spd
kts
Gust
kts
22/11:30pm 28.3 31.7 26.1 88 1.6 NW 20 35 11 19 1004.2 1003.9 4.0
22/11:00pm 28.1 31.2 25.7 87 1.7 NW 20 32 11 17 1004.3 1004.0 4.0
22/10:30pm 28.3 31.3 25.5 85 2.0 NW 20 33 11 18 1004.6 1004.3 4.0
22/10:00pm 28.2 31.5 26.0 88 1.6 NW 20 33 11 18 1004.5 1004.2 4.0
22/09:30pm 27.9 31.2 25.7 88 1.6 NW 19 28 10 15 1004.4 1004.1 4.0
22/09:00pm 27.8 31.5 25.8 89 1.4 NW 17 24 9 13 1004.2 1003.9 4.0
22/08:30pm 27.9 32.1 25.9 89 1.4 NW 15 20 8 11 1004.1 1003.8 4.0
22/08:00pm 27.6 32.4 26.2 92 1.0 NNW 13 19 7 10 1003.8 1003.5 4.0
22/07:30pm 27.2 31.8 26.5 96 0.5 NW 15 20 8 11 1003.6 1003.3 4.0
22/07:08pm 26.3 30.4 26.3 100 0.0 NW 17 28 9 15 1003.4 1003.1 4.0
22/07:00pm 26.0 29.2 25.5 97 0.4 NW 19 28 10 15 1003.3 1003.0 3.6
22/06:50pm 27.2 31.3 26.3 95 0.6 NW 17 28 9 15 1003.0 1002.7 3.2
22/06:30pm 27.2 31.1 26.0 93 0.8 WNW 17 28 9 15 1002.7 1002.4 3.2
22/06:00pm 28.1 32.3 26.5 91 1.1 NW 17 28 9 15 1002.4 1002.1 3.0
22/05:30pm 29.0 31.5 25.4 81 2.5 NNW 22 33 12 18 1002.2 1001.9 3.0
22/05:00pm 29.1 31.3 25.5 81 2.6 NW 24 37 13 20 1001.9 1001.6 3.0
22/04:30pm 29.2 31.7 25.4 80 2.7 NW 22 33 12 18 1001.8 1001.5 3.0
22/04:00pm 29.4 32.8 26.2 83 2.3 NW 20 32 11 17 1001.5 1001.2 3.0
22/03:30pm 29.3 32.3 26.1 83 2.3 NW 22 33 12 18 1001.6 1001.3 3.0
22/03:00pm 29.4 32.6 26.4 84 2.2 NW 22 32 12 17 1001.9 1001.6 3.0
22/02:30pm 28.4 33.5 27.2 93 0.9 NNW 15 30 8 16 1002.2 1001.9 3.0
22/02:06pm 27.0 31.8 26.8 99 0.1 NNW 15 22 8 12 1002.5 1002.2 3.0
22/02:00pm 26.7 30.9 26.5 99 0.1 NNW 17 28 9 15 1002.5 1002.2 3.0
22/01:46pm 26.3 27.4 26.1 99 0.1 NW 32 43 17 23 1002.9 1002.6 2.8
22/01:37pm 27.7 29.2 25.5 88 1.5 NW 28 46 15 25 1002.6 1002.3 2.2
22/01:30pm 29.9 32.5 26.1 80 2.7 NW 24 35 13 19 1002.4 1002.1 2.2
22/01:00pm 30.0 32.9 26.0 79 2.9 NNW 22 37 12 20 1002.8 1002.5 2.2
22/12:30pm 29.9 32.2 25.6 78 3.0 NNW 24 37 13 20 1002.9 1002.6 2.2
22/12:00pm 29.5 32.4 25.9 81 2.6 NNW 22 33 12 18 1003.5 1003.2 2.2
22/11:30am 29.2 32.5 26.0 83 2.3 NNW 20 35 11 19 1003.8 1003.5 2.2
22/11:00am 28.7 33.9 26.9 90 1.3 N 13 24 7 13 1004.0 1003.7 2.2
22/10:44am 27.5 31.6 26.4 94 0.8 NNW 17 26 9 14 1004.4 1004.1 2.2
22/10:30am 26.3 28.4 24.7 91 1.1 N 22 39 12 21 1004.6 1004.3 2.2
22/10:29am 26.2 28.2 24.6 91 1.1 N 22 39 12 21 1004.5 1004.2 2.2
22/10:00am 29.8 33.9 26.4 82 2.4 NNW 17 33 9 18 1004.6 1004.3 0.0
22/09:30am 29.6 33.5 26.6 84 2.1 NNW 19 32 10 17 1005.1 1004.7 0.0
22/09:00am 29.1 32.6 26.3 85 2.0 NNW 20 37 11 20 1004.9 1004.6 47.4
22/08:30am 28.3 32.2 26.1 88 1.6 NNW 17 26 9 14 1005.1 1004.7 47.4
22/08:00am 27.3 31.6 25.5 90 1.3 N 13 20 7 11 1004.9 1004.6 47.4
22/07:30am 26.7 31.5 26.2 97 0.4 N 13 20 7 11 1005.2 1004.8 47.4
22/07:00am 26.2 30.4 25.9 98 0.2 N 15 26 8 14 1005.2 1004.8 47.4
22/06:54am 26.2 30.1 26.0 99 0.1 N 17 28 9 15 1005.1 1004.7 47.4
22/06:30am 25.6 27.9 25.6 100 0.0 NNW 24 37 13 20 1004.9 1004.6 45.8
22/06:13am 25.9 28.0 24.1 90 1.2 N 20 41 11 22 1004.4 1004.1 41.4
22/06:00am 28.3 32.2 26.1 88 1.6 N 17 35 9 19 1003.8 1003.5 39.2
22/05:30am 27.9 32.5 25.9 89 1.4 N 13 22 7 12 1003.8 1003.5 39.0
22/05:00am 28.3 32.9 25.9 87 1.7 N 13 26 7 14 1003.8 1003.5 39.0
22/04:30am 27.9 32.6 26.1 90 1.3 NNE 13 24 7 13 1003.1 1002.8 39.0
22/04:00am 27.1 31.9 25.7 92 1.0 NNE 11 20 6 11 1003.1 1002.8 39.0
22/03:30am 27.2 30.4 25.6 91 1.1 NNW 19 33 10 18 1003.5 1003.2 38.8
22/03:00am 27.6 32.2 26.0 91 1.1 N 13 24 7 13 1003.6 1003.3 38.2
22/02:30am 26.5 29.7 25.8 96 0.5 NNW 20 35 11 19 1003.7 1003.4 38.2
22/02:00am 28.5 32.9 25.7 85 2.0 N 13 20 7 11 1003.6 1003.3 37.0
22/01:30am 28.7 33.0 26.1 86 1.8 N 15 32 8 17 1003.7 1003.4 37.0
22/01:00am 28.5 32.9 26.3 88 1.6 N 15 26 8 14 1004.1 1003.8 37.0
22/12:30am 27.5 33.9 27.0 97 0.4 N 7 15 4 8 1004.3 1004.0 37.0
22/12:00am 26.4 31.7 25.9 97 0.4 NE 9 17 5 9 1004.3 1004.0 37.0
 
Date/Time
WST
Temp
°C
App
Temp
°C
Dew
Point
°C
Rel
Hum
%
Delta-T
°C
Wind Press
QNH
hPa
Press
MSL
hPa
Rain since
9am
mm
Dir  Spd
km/h
Gust
km/h
Spd
kts
Gust
kts
21/11:30pm 26.6 31.1 25.2 92 1.0 NNE 11 20 6 11 1005.5 1005.1 37.0
21/11:00pm 27.8 30.9 25.4 87 1.7 N 19 33 10 18 1005.5 1005.1 36.2
21/10:30pm 27.8 33.3 26.7 94 0.8 N 11 24 6 13 1005.7 1005.3 36.2
21/10:00pm 26.5 32.3 26.0 97 0.4 N 7 15 4 8 1005.8 1005.4 36.2
21/09:57pm 26.6 32.2 26.3 98 0.2 N 9 22 5 12 1005.8 1005.4 36.2
21/09:37pm 26.0 29.9 24.8 93 0.8 N 13 46 7 25 1006.1 1005.7 33.8
21/09:30pm 28.1 34.3 26.7 92 1.0 N 7 13 4 7 1005.7 1005.3 31.4
21/09:00pm 27.9 33.4 26.8 94 0.8 NNE 11 17 6 9 1005.3 1004.9 31.4
21/08:30pm 27.7 33.8 27.0 96 0.5 NNE 9 15 5 8 1005.3 1004.9 31.4
21/08:00pm 27.2 34.0 27.2 100 0.0 NNE 6 11 3 6 1004.9 1004.6 31.4
21/07:30pm 26.4 32.6 26.4 100 0.0 NE 6 9 3 5 1004.5 1004.2 31.4
21/07:00pm 26.1 31.6 26.1 100 0.0 N 9 17 5 9 1004.6 1004.3 31.0
21/06:42pm 25.9 31.6 25.9 100 0.0 NNE 7 17 4 9 1004.4 1004.1 31.0
21/06:37pm 25.7 31.3 25.7 100 0.0 N 7 17 4 9 1004.4 1004.1 31.0
21/06:30pm 25.4 30.0 25.4 100 0.0 NNW 11 22 6 12 1004.3 1004.0 31.0
21/06:13pm 25.4 28.7 25.1 98 0.2 NNW 17 39 9 21 1004.2 1003.9 25.0
21/06:01pm 26.5 30.2 25.8 96 0.5 NW 17 32 9 17 1003.9 1003.6 22.4
21/06:00pm 26.4 30.1 25.7 96 0.5 NW 17 32 9 17 1003.9 1003.6 22.4
21/05:30pm 27.7 33.4 27.0 96 0.5 NNE 11 19 6 10 1003.6 1003.3 22.4
21/05:00pm 27.0 33.3 26.8 99 0.1 NNE 7 17 4 9 1003.1 1002.8 22.4
21/04:56pm 26.9 32.9 26.9 100 0.0 NNE 9 17 5 9 1003.0 1002.7 22.4
21/04:30pm 26.2 32.1 26.2 100 0.0 NNE 7 13 4 7 1003.2 1002.9 22.4
21/04:18pm 26.1 30.8 26.1 100 0.0 N 13 24 7 13 1003.3 1003.0 22.4
21/04:11pm 26.1 30.0 26.1 100 0.0 N 17 32 9 17 1003.4 1003.1 22.0
21/04:00pm 26.3 29.8 26.3 100 0.0 NNE 20 33 11 18 1003.3 1003.0 21.2
21/03:55pm 26.2 29.7 26.0 99 0.1 NNE 19 33 10 18 1003.3 1003.0 21.0
21/03:50pm 26.6 30.9 26.1 97 0.4 NNE 15 30 8 16 1003.3 1003.0 19.2
21/03:30pm 27.3 32.2 27.0 98 0.2 NE 15 28 8 15 1003.3 1003.0 18.2
21/03:18pm 27.1 31.5 26.8 98 0.2 ENE 17 26 9 14 1003.4 1003.1 18.2
21/03:00pm 26.9 31.6 26.7 99 0.1 ENE 15 24 8 13 1003.5 1003.2 18.0
21/02:44pm 26.5 31.8 26.5 100 0.0 NE 11 19 6 10 1003.6 1003.3 18.0
21/02:31pm 26.2 30.6 26.2 100 0.0 ENE 15 30 8 16 1003.8 1003.5 18.0
21/02:30pm 26.2 30.6 26.2 100 0.0 ENE 15 30 8 16 1003.8 1003.5 18.0
21/02:18pm 26.0 29.9 26.0 100 0.0 NE 17 24 9 13 1004.5 1004.2 17.8
21/02:01pm 25.7 28.8 25.7 100 0.0 NNE 20 33 11 18 1004.8 1004.5 17.0
21/02:00pm 25.7 28.8 25.7 100 0.0 NNE 20 33 11 18 1004.8 1004.5 16.6
21/01:54pm 25.7 28.4 25.7 100 0.0 NNE 22 37 12 20 1004.9 1004.6 14.6
21/01:47pm 25.7 28.4 25.7 100 0.0 NNE 22 37 12 20 1004.9 1004.6 13.0
21/01:30pm 26.0 28.5 26.0 100 0.0 NE 24 44 13 24 1004.9 1004.6 10.4
21/01:22pm 26.5 30.2 26.3 99 0.1 NNE 19 30 10 16 1005.1 1004.7 8.6
21/01:21pm 26.7 30.8 26.4 98 0.2 NNE 17 30 9 16 1004.9 1004.6 8.4
21/01:01pm 27.2 31.7 26.9 98 0.2 NE 17 28 9 15 1004.7 1004.4 6.8
21/01:00pm 27.1 31.5 26.8 98 0.2 NE 17 28 9 15 1004.7 1004.4 6.8
21/12:51pm 26.8 31.1 26.6 99 0.1 NE 17 30 9 16 1004.8 1004.5 6.4
21/12:38pm 26.7 29.2 26.0 96 0.5 NE 24 46 13 25 1004.6 1004.3 5.8
21/12:35pm 26.7 29.4 26.2 97 0.4 NE 24 46 13 25 1004.5 1004.2 5.8
21/12:30pm 26.5 28.8 26.2 98 0.2 NE 26 41 14 22 1004.4 1004.1 5.4
21/12:28pm 26.5 28.4 26.2 98 0.2 NE 28 52 15 28 1004.6 1004.3 5.4
21/12:26pm 26.5 29.2 26.2 98 0.2 NE 24 52 13 28 1004.5 1004.2 5.4
21/12:25pm 26.5 29.2 26.2 98 0.2 NE 24 52 13 28 1004.6 1004.3 5.4
21/12:00pm 27.5 31.9 26.8 96 0.5 ENE 17 33 9 18 1004.9 1004.6 3.4
21/11:30am 27.9 31.6 26.3 91 1.1 ENE 19 30 10 16 1005.1 1004.7 1.2
21/11:00am 28.9 32.0 25.7 83 2.3 ENE 20 32 11 17 1005.6 1005.2 0.4
21/10:30am 29.3 31.6 25.7 81 2.6 ENE 24 39 13 21 1005.6 1005.2 0.4
21/10:00am 29.5 32.2 26.3 83 2.3 ENE 24 39 13 21 1005.3 1004.9 0.4
21/09:30am 29.0 32.0 26.2 85 2.0 ENE 22 39 12 21 1005.6 1005.2 0.0
21/09:00am 28.8 31.2 26.4 87 1.7 ENE 26 41 14 22 1006.3 1005.9 68.2
21/08:30am 28.3 31.7 26.1 88 1.6 ENE 20 35 11 19 1006.3 1005.9 68.2
21/08:00am 27.8 31.0 25.8 89 1.4 ENE 20 37 11 20 1006.1 1005.7 68.2
21/07:30am 27.4 30.9 26.0 92 1.0 E 19 30 10 16 1005.8 1005.4 68.2
21/07:00am 26.9 29.7 25.3 91 1.1 ENE 20 35 11 19 1006.2 1005.8 68.2
21/06:30am 27.5 30.0 25.9 91 1.1 ENE 24 39 13 21 1006.3 1005.9 67.8
21/06:00am 27.5 30.2 25.7 90 1.3 ENE 22 39 12 21 1005.9 1005.5 67.8
21/05:57am 27.5 30.2 25.7 90 1.3 ENE 22 39 12 21 1005.9 1005.5 67.8
21/05:45am 27.4 29.8 25.8 91 1.1 ENE 24 41 13 22 1005.9 1005.5 67.8
21/05:30am 27.7 31.2 26.3 92 1.0 E 20 37 11 20 1005.6 1005.2 67.8
21/05:00am 27.2 31.3 26.3 95 0.6 E 17 30 9 16 1005.7 1005.3 67.8
21/04:39am 27.1 31.6 26.4 96 0.5 ESE 15 26 8 14 1005.4 1005.0 67.8
21/04:30am 27.1 31.4 26.6 97 0.4 E 17 32 9 17 1005.5 1005.1 67.8
21/04:00am 26.3 31.5 26.3 100 0.0 ESE 11 20 6 11 1005.5 1005.1 67.8
21/03:39am 25.6 30.3 25.6 100 0.0 SE 11 20 6 11 1005.6 1005.2 67.8
21/03:30am 24.8 29.4 24.8 100 0.0 SSE 9 19 5 10 1005.8 1005.4 67.8
21/03:12am 24.7 30.6 24.7 100 0.0 WNW 2 9 1 5 1006.5 1006.1 61.0
21/03:02am 25.2 30.1 25.2 100 0.0 NE 9 19 5 10 1007.0 1006.6 47.8
21/03:00am 25.3 30.2 25.3 100 0.0 NE 9 19 5 10 1006.9 1006.5 45.2
21/02:58am 25.3 29.9 25.3 100 0.0 ENE 11 19 6 10 1006.8 1006.4 42.4
21/02:36am 25.7 31.5 25.7 100 0.0 SE 6 15 3 8 1006.3 1005.9 27.8
21/02:30am 25.3 31.2 25.3 100 0.0 SSE 4 7 2 4 1006.1 1005.7 27.2
21/02:29am 25.3 31.2 25.3 100 0.0 SSE 4 7 2 4 1006.0 1005.6 27.2
21/02:28am 25.3 31.2 25.3 100 0.0 SE 4 7 2 4 1006.0 1005.6 26.8
21/02:00am 25.4 31.3 25.4 100 0.0 ESE 4 9 2 5 1006.2 1005.8 23.0
21/01:49am 25.3 30.2 25.3 100 0.0 ENE 9 17 5 9 1006.5 1006.1 18.0
21/01:33am 25.9 30.5 25.4 97 0.4 ENE 11 20 6 11 1006.5 1006.1 3.4
21/01:30am 26.0 30.2 25.3 96 0.5 ENE 13 20 7 11 1006.4 1006.0 2.8
21/01:00am 27.5 31.0 24.9 86 1.8 ENE 15 32 8 17 1006.6 1006.2 0.4
21/12:30am 28.7 31.2 24.5 78 2.9 E 19 32 10 17 1006.7 1006.3 0.2
21/12:00am 30.1 32.3 24.0 70 4.2 E 19 32 10 17 1006.5 1006.1 0.0
 
Date/Time
WST
Temp
°C
App
Temp
°C
Dew
Point
°C
Rel
Hum
%
Delta-T
°C
Wind Press
QNH
hPa
Press
MSL
hPa
Rain since
9am
mm
Dir  Spd
km/h
Gust
km/h
Spd
kts
Gust
kts
20/11:30pm 30.1 31.5 23.5 67 4.6 E 22 43 12 23 1006.7 1006.3 0.0
20/11:00pm 30.1 31.6 23.0 65 4.9 E 20 32 11 17 1007.0 1006.6 0.0

Other formats

Comma delimited format used in spreadsheet applications
http://www.bom.gov.au/fwo/IDW60801/IDW60801.99206.axf

JavaScript Object Notation format (JSON) in row-major order
http://www.bom.gov.au/fwo/IDW60801/IDW60801.99206.json

Data quality

Most of these data are generated automatically and are frequently updated. Quality checks on data are not normally performed. It is possible for incorrect values to appear. Refer to information at About Latest Weather Observations and please check the disclaimer before using these data.